sensor_id;sensor_type;location;lat;lon;timestamp;pressure;altitude;pressure_sealevel;temperature;humidity
74915;BME280;63475;45.140;-75.616;2023-08-30T00:01:31;99842.38;;;24.47;59.70
74915;BME280;63475;45.140;-75.616;2023-08-30T00:03:33;99836.13;;;24.39;59.76
74915;BME280;63475;45.140;-75.616;2023-08-30T00:05:38;99840.97;;;24.31;59.91
74915;BME280;63475;45.140;-75.616;2023-08-30T00:07:41;99842.06;;;24.23;60.33
74915;BME280;63475;45.140;-75.616;2023-08-30T00:09:44;99842.31;;;24.15;60.53
74915;BME280;63475;45.140;-75.616;2023-08-30T00:11:46;99834.31;;;24.07;60.75
74915;BME280;63475;45.140;-75.616;2023-08-30T00:13:49;99836.63;;;24.03;60.75
74915;BME280;63475;45.140;-75.616;2023-08-30T00:15:52;99837.31;;;23.99;61.09
74915;BME280;63475;45.140;-75.616;2023-08-30T00:17:55;99842.56;;;23.94;61.42
74915;BME280;63475;45.140;-75.616;2023-08-30T00:19:58;99834.59;;;23.86;61.40
74915;BME280;63475;45.140;-75.616;2023-08-30T00:22:02;99840.53;;;23.76;61.46
74915;BME280;63475;45.140;-75.616;2023-08-30T00:24:05;99852.88;;;23.72;61.84
74915;BME280;63475;45.140;-75.616;2023-08-30T00:26:08;99839.28;;;23.65;61.75
74915;BME280;63475;45.140;-75.616;2023-08-30T00:28:10;99838.69;;;23.57;61.49
74915;BME280;63475;45.140;-75.616;2023-08-30T00:30:13;99850.41;;;23.57;62.08
74915;BME280;63475;45.140;-75.616;2023-08-30T00:32:15;99847.69;;;23.51;62.17
74915;BME280;63475;45.140;-75.616;2023-08-30T00:34:18;99842.41;;;23.43;62.44
74915;BME280;63475;45.140;-75.616;2023-08-30T00:36:21;99849.09;;;23.40;62.36
74915;BME280;63475;45.140;-75.616;2023-08-30T00:38:26;99846.63;;;23.32;62.65
74915;BME280;63475;45.140;-75.616;2023-08-30T00:40:28;99841.38;;;23.24;62.52
74915;BME280;63475;45.140;-75.616;2023-08-30T00:42:31;99839.28;;;23.19;63.07
74915;BME280;63475;45.140;-75.616;2023-08-30T00:44:33;99855.19;;;23.16;63.19
74915;BME280;63475;45.140;-75.616;2023-08-30T00:46:36;99856.66;;;23.12;63.48
74915;BME280;63475;45.140;-75.616;2023-08-30T00:48:40;99846.19;;;23.02;63.61
74915;BME280;63475;45.140;-75.616;2023-08-30T00:50:43;99849.31;;;22.99;63.55
74915;BME280;63475;45.140;-75.616;2023-08-30T00:52:46;99847.88;;;22.90;64.13
74915;BME280;63475;45.140;-75.616;2023-08-30T00:54:49;99856.22;;;22.88;64.10
74915;BME280;63475;45.140;-75.616;2023-08-30T00:56:51;99848.88;;;22.82;64.02
74915;BME280;63475;45.140;-75.616;2023-08-30T00:58:55;99849.31;;;22.79;64.31
74915;BME280;63475;45.140;-75.616;2023-08-30T01:00:58;99852.81;;;22.73;64.20
74915;BME280;63475;45.140;-75.616;2023-08-30T01:03:01;99846.53;;;22.66;64.33
74915;BME280;63475;45.140;-75.616;2023-08-30T01:05:05;99849.66;;;22.63;64.55
74915;BME280;63475;45.140;-75.616;2023-08-30T01:07:08;99849.63;;;22.56;64.90
74915;BME280;63475;45.140;-75.616;2023-08-30T01:09:11;99857.16;;;22.54;65.04
74915;BME280;63475;45.140;-75.616;2023-08-30T01:11:36;99859.44;;;22.51;65.03
74915;BME280;63475;45.140;-75.616;2023-08-30T01:13:50;99859.44;;;22.44;65.13
74915;BME280;63475;45.140;-75.616;2023-08-30T01:15:55;99855.84;;;22.37;65.35
74915;BME280;63475;45.140;-75.616;2023-08-30T01:17:59;99848.69;;;22.29;65.63
74915;BME280;63475;45.140;-75.616;2023-08-30T01:20:06;99857.06;;;22.28;65.50
74915;BME280;63475;45.140;-75.616;2023-08-30T01:25:25;99867.03;;;22.14;66.38
74915;BME280;63475;45.140;-75.616;2023-08-30T01:27:24;99861.16;;;22.11;66.05
74915;BME280;63475;45.140;-75.616;2023-08-30T01:29:28;99862.41;;;22.08;66.01
74915;BME280;63475;45.140;-75.616;2023-08-30T01:31:33;99858.41;;;22.04;66.46
74915;BME280;63475;45.140;-75.616;2023-08-30T01:33:37;99852.72;;;21.99;66.41
74915;BME280;63475;45.140;-75.616;2023-08-30T01:35:40;99851.44;;;21.95;66.73
74915;BME280;63475;45.140;-75.616;2023-08-30T01:37:47;99844.09;;;21.89;67.12
74915;BME280;63475;45.140;-75.616;2023-08-30T01:39:51;99840.75;;;21.87;67.07
74915;BME280;63475;45.140;-75.616;2023-08-30T01:41:55;99842.19;;;21.83;66.97
74915;BME280;63475;45.140;-75.616;2023-08-30T01:44:01;99831.91;;;21.78;67.16
74915;BME280;63475;45.140;-75.616;2023-08-30T01:46:07;99839.22;;;21.78;67.34
74915;BME280;63475;45.140;-75.616;2023-08-30T01:48:15;99838.38;;;21.71;67.87
74915;BME280;63475;45.140;-75.616;2023-08-30T01:50:19;99837.09;;;21.66;67.92
74915;BME280;63475;45.140;-75.616;2023-08-30T01:52:23;99841.66;;;21.66;68.07
74915;BME280;63475;45.140;-75.616;2023-08-30T01:54:27;99834.97;;;21.62;68.22
74915;BME280;63475;45.140;-75.616;2023-08-30T01:56:32;99837.00;;;21.53;68.56
74915;BME280;63475;45.140;-75.616;2023-08-30T01:58:34;99834.69;;;21.50;68.58
74915;BME280;63475;45.140;-75.616;2023-08-30T02:00:38;99831.31;;;21.48;68.76
74915;BME280;63475;45.140;-75.616;2023-08-30T02:02:42;99835.47;;;21.44;68.74
74915;BME280;63475;45.140;-75.616;2023-08-30T02:04:45;99834.38;;;21.39;68.69
74915;BME280;63475;45.140;-75.616;2023-08-30T02:07:14;99831.66;;;21.39;68.88
74915;BME280;63475;45.140;-75.616;2023-08-30T02:09:22;99836.63;;;21.35;69.05
74915;BME280;63475;45.140;-75.616;2023-08-30T02:11:28;99840.38;;;21.34;69.20
74915;BME280;63475;45.140;-75.616;2023-08-30T02:13:32;99843.91;;;21.28;69.40
74915;BME280;63475;45.140;-75.616;2023-08-30T02:15:36;99837.16;;;21.24;69.64
74915;BME280;63475;45.140;-75.616;2023-08-30T02:17:40;99840.91;;;21.23;69.66
74915;BME280;63475;45.140;-75.616;2023-08-30T02:19:43;99839.63;;;21.19;69.61
74915;BME280;63475;45.140;-75.616;2023-08-30T02:21:47;99841.69;;;21.17;69.58
74915;BME280;63475;45.140;-75.616;2023-08-30T02:23:51;99843.75;;;21.15;69.48
74915;BME280;63475;45.140;-75.616;2023-08-30T02:25:54;99837.03;;;21.11;69.86
74915;BME280;63475;45.140;-75.616;2023-08-30T02:27:57;99832.66;;;21.10;70.00
74915;BME280;63475;45.140;-75.616;2023-08-30T02:30:02;99836.34;;;21.02;70.12
74915;BME280;63475;45.140;-75.616;2023-08-30T02:32:06;99836.53;;;21.00;70.24
74915;BME280;63475;45.140;-75.616;2023-08-30T02:34:09;99833.19;;;20.98;70.28
74915;BME280;63475;45.140;-75.616;2023-08-30T02:36:12;99822.09;;;20.93;70.29
74915;BME280;63475;45.140;-75.616;2023-08-30T02:38:15;99815.19;;;20.91;70.20
74915;BME280;63475;45.140;-75.616;2023-08-30T02:40:17;99825.19;;;20.90;70.76
74915;BME280;63475;45.140;-75.616;2023-08-30T02:42:20;99822.25;;;20.85;70.30
74915;BME280;63475;45.140;-75.616;2023-08-30T02:44:23;99814.69;;;20.81;70.79
74915;BME280;63475;45.140;-75.616;2023-08-30T02:46:28;99823.66;;;20.81;70.78
74915;BME280;63475;45.140;-75.616;2023-08-30T02:48:32;99821.72;;;20.75;71.09
74915;BME280;63475;45.140;-75.616;2023-08-30T02:50:34;99814.59;;;20.74;71.25
74915;BME280;63475;45.140;-75.616;2023-08-30T02:52:37;99814.59;;;20.74;71.57
74915;BME280;63475;45.140;-75.616;2023-08-30T02:54:40;99817.91;;;20.70;71.18
74915;BME280;63475;45.140;-75.616;2023-08-30T02:56:43;99817.44;;;20.66;71.51
74915;BME280;63475;45.140;-75.616;2023-08-30T02:58:46;99810.34;;;20.65;71.60
74915;BME280;63475;45.140;-75.616;2023-08-30T03:00:49;99819.53;;;20.64;71.51
74915;BME280;63475;45.140;-75.616;2023-08-30T03:02:52;99809.47;;;20.58;71.85
74915;BME280;63475;45.140;-75.616;2023-08-30T03:04:55;99808.81;;;20.56;71.50
74915;BME280;63475;45.140;-75.616;2023-08-30T03:06:57;99810.69;;;20.55;71.94
74915;BME280;63475;45.140;-75.616;2023-08-30T03:09:01;99815.44;;;20.53;72.02
74915;BME280;63475;45.140;-75.616;2023-08-30T03:11:12;99801.41;;;20.50;72.39
74915;BME280;63475;45.140;-75.616;2023-08-30T03:13:15;99798.81;;;20.42;72.24
74915;BME280;63475;45.140;-75.616;2023-08-30T03:15:17;99806.75;;;20.43;72.27
74915;BME280;63475;45.140;-75.616;2023-08-30T03:17:20;99809.03;;;20.40;72.46
74915;BME280;63475;45.140;-75.616;2023-08-30T03:19:23;99811.09;;;20.38;72.46
74915;BME280;63475;45.140;-75.616;2023-08-30T03:21:25;99808.38;;;20.38;72.56
74915;BME280;63475;45.140;-75.616;2023-08-30T03:23:28;99816.69;;;20.36;72.99
74915;BME280;63475;45.140;-75.616;2023-08-30T03:25:31;99811.19;;;20.29;72.79
74915;BME280;63475;45.140;-75.616;2023-08-30T03:27:34;99809.13;;;20.31;72.80
74915;BME280;63475;45.140;-75.616;2023-08-30T03:29:37;99801.56;;;20.27;72.77
74915;BME280;63475;45.140;-75.616;2023-08-30T03:31:40;99802.41;;;20.27;73.15
74915;BME280;63475;45.140;-75.616;2023-08-30T03:33:43;99800.47;;;20.21;73.64
74915;BME280;63475;45.140;-75.616;2023-08-30T03:35:46;99791.44;;;20.14;73.73
74915;BME280;63475;45.140;-75.616;2023-08-30T03:37:49;99802.94;;;20.16;73.46
74915;BME280;63475;45.140;-75.616;2023-08-30T03:39:51;99789.66;;;20.07;73.93
74915;BME280;63475;45.140;-75.616;2023-08-30T03:41:53;99793.22;;;20.07;73.95
74915;BME280;63475;45.140;-75.616;2023-08-30T03:43:56;99794.91;;;20.08;74.29
74915;BME280;63475;45.140;-75.616;2023-08-30T03:46:02;99790.88;;;20.04;74.49
74915;BME280;63475;45.140;-75.616;2023-08-30T03:48:05;99800.03;;;20.03;74.45
74915;BME280;63475;45.140;-75.616;2023-08-30T03:50:09;99785.84;;;20.01;74.52
74915;BME280;63475;45.140;-75.616;2023-08-30T03:52:12;99785.59;;;19.96;74.61
74915;BME280;63475;45.140;-75.616;2023-08-30T03:54:15;99791.81;;;19.96;74.78
74915;BME280;63475;45.140;-75.616;2023-08-30T03:56:18;99786.81;;;19.93;75.07
74915;BME280;63475;45.140;-75.616;2023-08-30T03:58:21;99791.22;;;19.94;75.44
74915;BME280;63475;45.140;-75.616;2023-08-30T04:00:23;99790.75;;;19.91;75.31
74915;BME280;63475;45.140;-75.616;2023-08-30T04:02:26;99787.38;;;19.89;75.41
74915;BME280;63475;45.140;-75.616;2023-08-30T04:04:28;99785.69;;;19.88;75.69
74915;BME280;63475;45.140;-75.616;2023-08-30T04:06:31;99789.44;;;19.87;76.03
74915;BME280;63475;45.140;-75.616;2023-08-30T04:08:34;99775.25;;;19.85;76.16
74915;BME280;63475;45.140;-75.616;2023-08-30T04:10:38;99773.75;;;19.82;76.41
74915;BME280;63475;45.140;-75.616;2023-08-30T04:12:40;99772.91;;;19.82;76.58
74915;BME280;63475;45.140;-75.616;2023-08-30T04:14:43;99779.34;;;19.81;76.16
74915;BME280;63475;45.140;-75.616;2023-08-30T04:16:45;99774.31;;;19.78;76.00
74915;BME280;63475;45.140;-75.616;2023-08-30T04:18:48;99770.75;;;19.77;76.00
74915;BME280;63475;45.140;-75.616;2023-08-30T04:20:50;99777.66;;;19.80;76.37
74915;BME280;63475;45.140;-75.616;2023-08-30T04:22:53;99761.63;;;19.78;76.56
74915;BME280;63475;45.140;-75.616;2023-08-30T04:24:57;99763.03;;;19.74;76.47
74915;BME280;63475;45.140;-75.616;2023-08-30T04:26:59;99762.22;;;19.74;76.95
74915;BME280;63475;45.140;-75.616;2023-08-30T04:29:02;99765.53;;;19.76;76.94
74915;BME280;63475;45.140;-75.616;2023-08-30T04:31:05;99775.09;;;19.72;76.90
74915;BME280;63475;45.140;-75.616;2023-08-30T04:33:08;99773.03;;;19.74;76.07
74915;BME280;63475;45.140;-75.616;2023-08-30T04:35:11;99767.63;;;19.74;76.87
74915;BME280;63475;45.140;-75.616;2023-08-30T04:37:13;99765.44;;;19.69;76.25
74915;BME280;63475;45.140;-75.616;2023-08-30T04:39:16;99759.88;;;19.71;76.91
74915;BME280;63475;45.140;-75.616;2023-08-30T04:41:18;99744.63;;;19.70;76.97
74915;BME280;63475;45.140;-75.616;2023-08-30T04:43:21;99746.50;;;19.69;77.40
74915;BME280;63475;45.140;-75.616;2023-08-30T04:45:23;99749.41;;;19.67;77.17
74915;BME280;63475;45.140;-75.616;2023-08-30T04:47:27;99743.78;;;19.69;76.83
74915;BME280;63475;45.140;-75.616;2023-08-30T04:49:30;99753.78;;;19.69;77.20
74915;BME280;63475;45.140;-75.616;2023-08-30T04:51:33;99744.16;;;19.66;76.32
74915;BME280;63475;45.140;-75.616;2023-08-30T04:53:35;99737.06;;;19.65;76.39
74915;BME280;63475;45.140;-75.616;2023-08-30T04:55:37;99734.56;;;19.63;76.62
74915;BME280;63475;45.140;-75.616;2023-08-30T04:57:40;99731.84;;;19.63;76.81
74915;BME280;63475;45.140;-75.616;2023-08-30T04:59:47;99727.66;;;19.61;76.50
74915;BME280;63475;45.140;-75.616;2023-08-30T05:01:50;99732.03;;;19.62;76.61
74915;BME280;63475;45.140;-75.616;2023-08-30T05:03:53;99732.88;;;19.62;76.84
74915;BME280;63475;45.140;-75.616;2023-08-30T05:05:56;99717.03;;;19.59;77.02
74915;BME280;63475;45.140;-75.616;2023-08-30T05:07:58;99702.66;;;19.59;77.27
74915;BME280;63475;45.140;-75.616;2023-08-30T05:10:01;99715.34;;;19.58;77.21
74915;BME280;63475;45.140;-75.616;2023-08-30T05:12:05;99700.13;;;19.57;77.19
74915;BME280;63475;45.140;-75.616;2023-08-30T05:14:07;99687.63;;;19.56;77.83
74915;BME280;63475;45.140;-75.616;2023-08-30T05:16:14;99684.09;;;19.56;78.30
74915;BME280;63475;45.140;-75.616;2023-08-30T05:18:19;99679.47;;;19.50;78.25
74915;BME280;63475;45.140;-75.616;2023-08-30T05:20:21;99683.19;;;19.49;78.67
74915;BME280;63475;45.140;-75.616;2023-08-30T05:22:24;99690.91;;;19.52;78.22
74915;BME280;63475;45.140;-75.616;2023-08-30T05:24:26;99672.19;;;19.50;78.27
74915;BME280;63475;45.140;-75.616;2023-08-30T05:26:30;99672.81;;;19.52;79.02
74915;BME280;63475;45.140;-75.616;2023-08-30T05:28:32;99659.69;;;19.49;79.28
74915;BME280;63475;45.140;-75.616;2023-08-30T05:30:35;99668.63;;;19.50;79.17
74915;BME280;63475;45.140;-75.616;2023-08-30T05:32:37;99652.50;;;19.42;78.04
74915;BME280;63475;45.140;-75.616;2023-08-30T05:34:40;99665.28;;;19.48;77.99
74915;BME280;63475;45.140;-75.616;2023-08-30T05:36:42;99669.19;;;19.45;78.33
74915;BME280;63475;45.140;-75.616;2023-08-30T05:38:45;99667.53;;;19.44;78.11
74915;BME280;63475;45.140;-75.616;2023-08-30T05:40:48;99664.34;;;19.41;77.86
74915;BME280;63475;45.140;-75.616;2023-08-30T05:42:50;99654.75;;;19.38;77.90
74915;BME280;63475;45.140;-75.616;2023-08-30T05:44:55;99655.59;;;19.39;77.48
74915;BME280;63475;45.140;-75.616;2023-08-30T05:46:57;99654.38;;;19.41;76.90
74915;BME280;63475;45.140;-75.616;2023-08-30T05:49:00;99655.41;;;19.40;77.27
74915;BME280;63475;45.140;-75.616;2023-08-30T05:51:05;99648.31;;;19.39;77.06
74915;BME280;63475;45.140;-75.616;2023-08-30T05:53:07;99651.00;;;19.39;77.50
74915;BME280;63475;45.140;-75.616;2023-08-30T05:55:10;99652.03;;;19.38;78.31
74915;BME280;63475;45.140;-75.616;2023-08-30T05:57:12;99643.47;;;19.35;78.50
74915;BME280;63475;45.140;-75.616;2023-08-30T05:59:14;99635.53;;;19.33;78.94
74915;BME280;63475;45.140;-75.616;2023-08-30T06:01:18;99639.25;;;19.32;79.41
74915;BME280;63475;45.140;-75.616;2023-08-30T06:03:22;99642.63;;;19.34;79.25
74915;BME280;63475;45.140;-75.616;2023-08-30T06:05:25;99625.94;;;19.30;79.38
74915;BME280;63475;45.140;-75.616;2023-08-30T06:07:28;99626.75;;;19.31;79.60
74915;BME280;63475;45.140;-75.616;2023-08-30T06:09:30;99624.47;;;19.28;79.67
74915;BME280;63475;45.140;-75.616;2023-08-30T06:11:33;99626.97;;;19.29;80.06
74915;BME280;63475;45.140;-75.616;2023-08-30T06:13:35;99619.06;;;19.28;80.68
74915;BME280;63475;45.140;-75.616;2023-08-30T06:15:38;99613.00;;;19.26;80.47
74915;BME280;63475;45.140;-75.616;2023-08-30T06:17:41;99619.25;;;19.26;80.32
74915;BME280;63475;45.140;-75.616;2023-08-30T06:19:47;99621.31;;;19.24;80.78
74915;BME280;63475;45.140;-75.616;2023-08-30T06:21:50;99629.41;;;19.24;80.35
74915;BME280;63475;45.140;-75.616;2023-08-30T06:23:52;99641.06;;;19.25;79.96
74915;BME280;63475;45.140;-75.616;2023-08-30T06:25:56;99646.47;;;19.25;79.65
74915;BME280;63475;45.140;-75.616;2023-08-30T06:27:59;99655.44;;;19.25;80.83
74915;BME280;63475;45.140;-75.616;2023-08-30T06:30:03;99680.00;;;19.30;81.63
74915;BME280;63475;45.140;-75.616;2023-08-30T06:32:06;99668.75;;;19.27;82.07
74915;BME280;63475;45.140;-75.616;2023-08-30T06:34:09;99648.72;;;19.21;80.19
74915;BME280;63475;45.140;-75.616;2023-08-30T06:36:13;99647.88;;;19.21;78.11
74915;BME280;63475;45.140;-75.616;2023-08-30T06:38:18;99630.25;;;19.10;78.21
74915;BME280;63475;45.140;-75.616;2023-08-30T06:40:20;99637.88;;;19.07;77.90
74915;BME280;63475;45.140;-75.616;2023-08-30T06:42:23;99665.69;;;19.01;77.69
74915;BME280;63475;45.140;-75.616;2023-08-30T06:44:27;99704.19;;;19.03;77.78
74915;BME280;63475;45.140;-75.616;2023-08-30T06:46:30;99718.59;;;18.95;77.77
74915;BME280;63475;45.140;-75.616;2023-08-30T06:48:33;99711.06;;;18.90;77.95
74915;BME280;63475;45.140;-75.616;2023-08-30T06:50:36;99691.81;;;18.85;78.47
74915;BME280;63475;45.140;-75.616;2023-08-30T06:52:38;99658.09;;;18.81;78.10
74915;BME280;63475;45.140;-75.616;2023-08-30T06:54:41;99630.38;;;18.64;77.99
74915;BME280;63475;45.140;-75.616;2023-08-30T06:56:57;99637.00;;;18.62;78.31
74915;BME280;63475;45.140;-75.616;2023-08-30T06:58:59;99632.44;;;18.62;78.18
74915;BME280;63475;45.140;-75.616;2023-08-30T07:01:02;99629.09;;;18.60;78.39
74915;BME280;63475;45.140;-75.616;2023-08-30T07:03:08;99637.56;;;18.57;78.63
74915;BME280;63475;45.140;-75.616;2023-08-30T07:05:11;99625.81;;;18.50;79.46
74915;BME280;63475;45.140;-75.616;2023-08-30T07:07:14;99628.88;;;18.47;79.40
74915;BME280;63475;45.140;-75.616;2023-08-30T07:09:17;99611.34;;;18.43;79.66
74915;BME280;63475;45.140;-75.616;2023-08-30T07:11:22;99612.97;;;18.38;79.71
74915;BME280;63475;45.140;-75.616;2023-08-30T07:13:35;99601.69;;;18.34;80.14
74915;BME280;63475;45.140;-75.616;2023-08-30T07:15:41;99586.31;;;18.35;80.15
74915;BME280;63475;45.140;-75.616;2023-08-30T07:17:44;99563.41;;;18.30;80.01
74915;BME280;63475;45.140;-75.616;2023-08-30T07:19:55;99542.53;;;18.24;80.26
74915;BME280;63475;45.140;-75.616;2023-08-30T07:21:57;99533.88;;;18.29;80.31
74915;BME280;63475;45.140;-75.616;2023-08-30T07:24:02;99520.94;;;18.24;80.16
74915;BME280;63475;45.140;-75.616;2023-08-30T07:26:05;99519.91;;;18.25;80.46
74915;BME280;63475;45.140;-75.616;2023-08-30T07:28:08;99500.72;;;18.20;80.41
74915;BME280;63475;45.140;-75.616;2023-08-30T07:30:11;99510.50;;;18.21;80.25
74915;BME280;63475;45.140;-75.616;2023-08-30T07:32:14;99515.06;;;18.21;80.99
74915;BME280;63475;45.140;-75.616;2023-08-30T07:34:17;99507.91;;;18.13;80.81
74915;BME280;63475;45.140;-75.616;2023-08-30T07:36:20;99520.16;;;18.16;80.52
74915;BME280;63475;45.140;-75.616;2023-08-30T07:38:31;99511.63;;;18.12;80.94
74915;BME280;63475;45.140;-75.616;2023-08-30T07:40:34;99488.72;;;18.08;80.68
74915;BME280;63475;45.140;-75.616;2023-08-30T07:42:36;99488.72;;;18.08;80.70
74915;BME280;63475;45.140;-75.616;2023-08-30T07:44:39;99493.75;;;18.11;80.88
74915;BME280;63475;45.140;-75.616;2023-08-30T07:46:41;99480.44;;;18.10;80.81
74915;BME280;63475;45.140;-75.616;2023-08-30T07:48:44;99473.91;;;18.04;80.51
74915;BME280;63475;45.140;-75.616;2023-08-30T07:50:46;99468.53;;;18.04;81.22
74915;BME280;63475;45.140;-75.616;2023-08-30T07:52:49;99470.19;;;18.05;81.02
74915;BME280;63475;45.140;-75.616;2023-08-30T07:54:51;99466.84;;;18.03;80.63
74915;BME280;63475;45.140;-75.616;2023-08-30T07:56:54;99459.09;;;18.00;80.76
74915;BME280;63475;45.140;-75.616;2023-08-30T07:58:56;99466.00;;;18.03;80.71
74915;BME280;63475;45.140;-75.616;2023-08-30T08:00:59;99453.72;;;18.00;80.86
74915;BME280;63475;45.140;-75.616;2023-08-30T08:03:02;99456.75;;;17.97;80.69
74915;BME280;63475;45.140;-75.616;2023-08-30T08:05:05;99465.88;;;17.96;80.87
74915;BME280;63475;45.140;-75.616;2023-08-30T08:07:07;99462.50;;;17.94;81.02
74915;BME280;63475;45.140;-75.616;2023-08-30T08:09:10;99448.38;;;17.92;80.82
74915;BME280;63475;45.140;-75.616;2023-08-30T08:11:12;99428.84;;;17.90;80.71
74915;BME280;63475;45.140;-75.616;2023-08-30T08:13:15;99435.25;;;17.89;80.83
74915;BME280;63475;45.140;-75.616;2023-08-30T08:15:17;99440.66;;;17.89;80.70
74915;BME280;63475;45.140;-75.616;2023-08-30T08:17:20;99438.31;;;17.86;80.71
74915;BME280;63475;45.140;-75.616;2023-08-30T08:19:22;99442.69;;;17.87;81.00
74915;BME280;63475;45.140;-75.616;2023-08-30T08:21:27;99434.69;;;17.79;81.09
74915;BME280;63475;45.140;-75.616;2023-08-30T08:23:29;99442.78;;;17.79;80.89
74915;BME280;63475;45.140;-75.616;2023-08-30T08:25:32;99456.25;;;17.79;81.61
74915;BME280;63475;45.140;-75.616;2023-08-30T08:27:34;99454.59;;;17.78;81.20
74915;BME280;63475;45.140;-75.616;2023-08-30T08:29:37;99452.25;;;17.75;81.33
74915;BME280;63475;45.140;-75.616;2023-08-30T08:31:40;99465.72;;;17.75;81.23
74915;BME280;63475;45.140;-75.616;2023-08-30T08:33:43;99475.88;;;17.73;81.47
74915;BME280;63475;45.140;-75.616;2023-08-30T08:35:48;99474.41;;;17.70;81.43
74915;BME280;63475;45.140;-75.616;2023-08-30T08:37:50;99475.59;;;17.68;81.22
74915;BME280;63475;45.140;-75.616;2023-08-30T08:39:53;99483.03;;;17.66;81.55
74915;BME280;63475;45.140;-75.616;2023-08-30T08:41:55;99487.75;;;17.63;81.67
74915;BME280;63475;45.140;-75.616;2023-08-30T08:43:59;99497.53;;;17.65;82.10
74915;BME280;63475;45.140;-75.616;2023-08-30T08:46:03;99482.38;;;17.63;81.82
74915;BME280;63475;45.140;-75.616;2023-08-30T08:48:09;99474.63;;;17.60;82.08
74915;BME280;63475;45.140;-75.616;2023-08-30T08:50:13;99478.53;;;17.58;82.05
74915;BME280;63475;45.140;-75.616;2023-08-30T08:52:16;99465.03;;;17.58;82.23
74915;BME280;63475;45.140;-75.616;2023-08-30T08:54:33;99456.84;;;17.51;82.78
74915;BME280;63475;45.140;-75.616;2023-08-30T08:56:36;99466.59;;;17.52;82.47
74915;BME280;63475;45.140;-75.616;2023-08-30T08:58:39;99470.31;;;17.51;81.93
74915;BME280;63475;45.140;-75.616;2023-08-30T09:00:42;99459.88;;;17.48;82.24
74915;BME280;63475;45.140;-75.616;2023-08-30T09:02:45;99466.34;;;17.47;82.12
74915;BME280;63475;45.140;-75.616;2023-08-30T09:04:48;99467.53;;;17.45;82.82
74915;BME280;63475;45.140;-75.616;2023-08-30T09:06:51;99472.25;;;17.43;82.11
74915;BME280;63475;45.140;-75.616;2023-08-30T09:08:54;99482.22;;;17.42;82.56
74915;BME280;63475;45.140;-75.616;2023-08-30T09:10:56;99494.84;;;17.42;82.11
74915;BME280;63475;45.140;-75.616;2023-08-30T09:12:59;99494.84;;;17.42;82.48
74915;BME280;63475;45.140;-75.616;2023-08-30T09:15:02;99480.53;;;17.41;82.40
74915;BME280;63475;45.140;-75.616;2023-08-30T09:17:06;99472.13;;;17.36;82.09
74915;BME280;63475;45.140;-75.616;2023-08-30T09:19:08;99462.00;;;17.38;82.44
74915;BME280;63475;45.140;-75.616;2023-08-30T09:21:12;99450.56;;;17.36;82.37
74915;BME280;63475;45.140;-75.616;2023-08-30T09:23:21;99448.88;;;17.35;82.43
74915;BME280;63475;45.140;-75.616;2023-08-30T09:25:26;99450.75;;;17.35;82.26
74915;BME280;63475;45.140;-75.616;2023-08-30T09:27:33;99458.34;;;17.31;82.50
74915;BME280;63475;45.140;-75.616;2023-08-30T09:29:36;99453.50;;;17.26;82.89
74915;BME280;63475;45.140;-75.616;2023-08-30T09:31:39;99449.78;;;17.27;82.93
74915;BME280;63475;45.140;-75.616;2023-08-30T09:33:45;99442.53;;;17.28;83.05
74915;BME280;63475;45.140;-75.616;2023-08-30T09:35:50;99440.75;;;17.20;83.20
74915;BME280;63475;45.140;-75.616;2023-08-30T09:37:54;99470.69;;;17.25;84.03
74915;BME280;63475;45.140;-75.616;2023-08-30T09:39:56;99468.53;;;17.21;83.36
74915;BME280;63475;45.140;-75.616;2023-08-30T09:41:59;99475.97;;;17.19;83.50
74915;BME280;63475;45.140;-75.616;2023-08-30T09:44:18;99473.16;;;17.12;83.54
74915;BME280;63475;45.140;-75.616;2023-08-30T09:46:22;99479.38;;;17.13;83.34
74915;BME280;63475;45.140;-75.616;2023-08-30T09:48:45;99460.03;;;17.09;83.25
74915;BME280;63475;45.140;-75.616;2023-08-30T09:50:52;99445.34;;;17.12;83.42
74915;BME280;63475;45.140;-75.616;2023-08-30T09:52:56;99443.84;;;17.09;83.48
74915;BME280;63475;45.140;-75.616;2023-08-30T09:54:59;99447.03;;;17.05;83.89
74915;BME280;63475;45.140;-75.616;2023-08-30T09:57:02;99441.19;;;17.01;84.07
74915;BME280;63475;45.140;-75.616;2023-08-30T09:59:05;99428.38;;;17.03;84.18
74915;BME280;63475;45.140;-75.616;2023-08-30T10:01:07;99428.75;;;17.00;83.41
74915;BME280;63475;45.140;-75.616;2023-08-30T10:03:11;99435.59;;;17.03;83.60
74915;BME280;63475;45.140;-75.616;2023-08-30T10:05:33;99433.97;;;17.02;83.47
74915;BME280;63475;45.140;-75.616;2023-08-30T10:07:37;99437.84;;;16.99;83.37
74915;BME280;63475;45.140;-75.616;2023-08-30T10:09:41;99445.25;;;16.97;83.60
74915;BME280;63475;45.140;-75.616;2023-08-30T10:12:05;99447.59;;;17.00;83.12
74915;BME280;63475;45.140;-75.616;2023-08-30T10:14:08;99425.75;;;16.95;83.53
74915;BME280;63475;45.140;-75.616;2023-08-30T10:16:15;99429.94;;;16.98;83.26
74915;BME280;63475;45.140;-75.616;2023-08-30T10:18:25;99418.31;;;16.97;83.44
74915;BME280;63475;45.140;-75.616;2023-08-30T10:20:31;99408.75;;;16.94;83.25
74915;BME280;63475;45.140;-75.616;2023-08-30T10:22:37;99423.34;;;17.00;83.14
74915;BME280;63475;45.140;-75.616;2023-08-30T10:24:46;99419.81;;;17.00;83.40
74915;BME280;63475;45.140;-75.616;2023-08-30T10:27:09;99429.09;;;16.97;83.54
74915;BME280;63475;45.140;-75.616;2023-08-30T10:29:14;99442.41;;;16.99;83.07
74915;BME280;63475;45.140;-75.616;2023-08-30T10:31:18;99442.41;;;16.99;83.29
74915;BME280;63475;45.140;-75.616;2023-08-30T10:33:21;99444.25;;;16.98;83.16
74915;BME280;63475;45.140;-75.616;2023-08-30T10:35:28;99445.09;;;16.99;83.19
74915;BME280;63475;45.140;-75.616;2023-08-30T10:37:31;99450.81;;;16.95;83.09
74915;BME280;63475;45.140;-75.616;2023-08-30T10:39:42;99467.31;;;17.01;83.25
74915;BME280;63475;45.140;-75.616;2023-08-30T10:41:55;99473.72;;;17.00;83.20
74915;BME280;63475;45.140;-75.616;2023-08-30T10:44:01;99487.53;;;16.97;83.44